Time,TemperatureF,DewpointF,PressureIn,WindDirection,WindDirectionDegrees,WindSpeedMPH,WindSpeedGustMPH,Humidity,HourlyPrecipIn,Conditions,Clouds,dailyrainin,SoftwareType,DateUTC
2013-08-25 00:02:00,51.4,51.2,30.37,North,0,0.0,0.0,99,0.00,,,0.00,pywws,2013-08-25 04:02:00,
2013-08-25 00:03:00,51.3,51.0,30.37,North,0,0.0,0.0,99,0.00,,,0.00,pywws,2013-08-25 04:03:00,
2013-08-25 00:07:00,51.1,50.8,30.37,North,0,0.0,0.0,99,0.00,,,0.00,pywws,2013-08-25 04:07:00,
2013-08-25 00:09:00,51.3,51.0,30.37,North,0,0.0,0.0,99,0.00,,,0.00,pywws,2013-08-25 04:09:00,
2013-08-25 00:10:00,51.4,51.2,30.37,North,0,0.0,0.0,99,0.00,,,0.00,pywws,2013-08-25 04:10:00,
2013-08-25 00:18:00,51.1,50.8,30.37,North,0,0.0,0.0,99,0.00,,,0.00,pywws,2013-08-25 04:18:00,
2013-08-25 00:26:00,51.1,50.8,30.37,North,0,0.0,0.0,99,0.00,,,0.00,pywws,2013-08-25 04:26:00,
2013-08-25 00:31:00,51.1,50.8,30.37,North,0,0.0,0.0,99,0.00,,,0.00,pywws,2013-08-25 04:31:00,
2013-08-25 00:37:00,51.1,50.8,30.37,North,0,0.0,0.0,99,0.00,,,0.00,pywws,2013-08-25 04:37:00,
2013-08-25 00:43:00,50.7,50.4,30.37,North,0,0.0,0.0,99,0.00,,,0.00,pywws,2013-08-25 04:43:00,
2013-08-25 00:48:00,50.5,50.3,30.37,North,0,0.0,0.0,99,0.00,,,0.00,pywws,2013-08-25 04:48:00,
2013-08-25 00:55:00,50.5,50.3,30.36,North,0,0.0,0.0,99,0.00,,,0.00,pywws,2013-08-25 04:55:00,
2013-08-25 01:01:00,50.5,50.3,30.36,North,0,0.0,0.0,99,0.00,,,0.00,pywws,2013-08-25 05:01:00,
2013-08-25 01:07:00,50.7,50.4,30.36,North,0,0.0,0.0,99,0.00,,,0.00,pywws,2013-08-25 05:07:00,
2013-08-25 01:13:00,50.5,50.3,30.36,North,0,0.0,0.0,99,0.00,,,0.00,pywws,2013-08-25 05:13:00,
2013-08-25 01:19:00,50.5,50.3,30.36,North,0,0.0,0.0,99,0.00,,,0.00,pywws,2013-08-25 05:19:00,
2013-08-25 01:26:00,50.5,50.3,30.36,North,0,0.0,0.0,99,0.00,,,0.00,pywws,2013-08-25 05:26:00,
2013-08-25 01:32:00,50.7,50.4,30.36,North,0,0.0,0.0,99,0.00,,,0.00,pywws,2013-08-25 05:32:00,
2013-08-25 01:38:00,50.4,50.1,30.36,North,0,0.0,0.0,99,0.00,,,0.00,pywws,2013-08-25 05:38:00,
2013-08-25 01:44:00,50.2,49.9,30.36,North,0,0.0,0.0,99,0.00,,,0.00,pywws,2013-08-25 05:44:00,
2013-08-25 01:50:00,50.5,50.3,30.35,North,0,0.0,0.0,99,0.00,,,0.00,pywws,2013-08-25 05:50:00,
2013-08-25 01:55:00,50.5,50.3,30.35,North,0,0.0,0.0,99,0.00,,,0.00,pywws,2013-08-25 05:55:00,
2013-08-25 02:01:00,50.4,50.1,30.35,North,0,0.0,0.0,99,0.00,,,0.00,pywws,2013-08-25 06:01:00,
2013-08-25 02:07:00,50.2,49.9,30.35,North,0,0.0,0.0,99,0.00,,,0.00,pywws,2013-08-25 06:07:00,
2013-08-25 02:13:00,50.0,49.7,30.35,North,0,0.0,0.0,99,0.00,,,0.00,pywws,2013-08-25 06:13:00,
2013-08-25 02:19:00,50.0,49.7,30.35,North,0,0.0,0.0,99,0.00,,,0.00,pywws,2013-08-25 06:19:00,
2013-08-25 02:25:00,49.6,49.4,30.34,North,0,0.0,0.0,99,0.00,,,0.00,pywws,2013-08-25 06:25:00,
2013-08-25 02:31:00,49.6,49.4,30.34,North,0,0.0,0.0,99,0.00,,,0.00,pywws,2013-08-25 06:31:00,
2013-08-25 02:37:00,49.6,49.4,30.34,North,0,0.0,0.0,99,0.00,,,0.00,pywws,2013-08-25 06:37:00,
2013-08-25 02:43:00,49.6,49.4,30.34,North,0,0.0,0.0,99,0.00,,,0.00,pywws,2013-08-25 06:43:00,
2013-08-25 02:49:00,49.6,49.4,30.34,North,0,0.0,0.0,99,0.00,,,0.00,pywws,2013-08-25 06:49:00,
2013-08-25 02:55:00,49.5,49.2,30.34,North,0,0.0,0.0,99,0.00,,,0.00,pywws,2013-08-25 06:55:00,
2013-08-25 03:00:00,49.5,49.2,30.34,North,0,0.0,0.0,99,0.00,,,0.00,pywws,2013-08-25 07:00:00,
2013-08-25 03:07:00,49.3,49.0,30.34,North,0,0.0,0.0,99,0.00,,,0.00,pywws,2013-08-25 07:07:00,
2013-08-25 03:13:00,48.9,48.7,30.34,North,0,0.0,0.0,99,0.00,,,0.00,pywws,2013-08-25 07:13:00,
2013-08-25 03:19:00,48.9,48.7,30.34,North,0,0.0,0.0,99,0.00,,,0.00,pywws,2013-08-25 07:19:00,
2013-08-25 03:24:00,49.1,48.8,30.34,North,0,0.0,0.0,99,0.00,,,0.00,pywws,2013-08-25 07:24:00,
2013-08-25 03:31:00,48.7,48.5,30.34,North,0,0.0,0.0,99,0.00,,,0.00,pywws,2013-08-25 07:31:00,
2013-08-25 03:37:00,48.7,48.5,30.34,North,0,0.0,0.0,99,0.00,,,0.00,pywws,2013-08-25 07:37:00,
2013-08-25 03:44:00,48.6,48.3,30.34,North,0,0.0,0.0,99,0.00,,,0.00,pywws,2013-08-25 07:44:00,
2013-08-25 03:51:00,48.6,48.3,30.34,North,0,0.0,0.0,99,0.00,,,0.00,pywws,2013-08-25 07:51:00,
2013-08-25 03:59:00,48.4,48.1,30.34,North,0,0.0,0.0,99,0.00,,,0.00,pywws,2013-08-25 07:59:00,
2013-08-25 04:05:00,48.2,47.9,30.34,North,0,0.0,0.0,99,0.00,,,0.00,pywws,2013-08-25 08:05:00,
2013-08-25 04:11:00,47.8,47.6,30.34,North,0,0.0,0.0,99,0.00,,,0.00,pywws,2013-08-25 08:11:00,
2013-08-25 04:17:00,47.8,47.6,30.34,North,0,0.0,0.0,99,0.00,,,0.00,pywws,2013-08-25 08:17:00,
2013-08-25 04:25:00,47.7,47.4,30.34,North,0,0.0,0.0,99,0.00,,,0.00,pywws,2013-08-25 08:25:00,
2013-08-25 04:31:00,47.5,47.2,30.35,North,0,0.0,0.0,99,0.00,,,0.00,pywws,2013-08-25 08:31:00,
2013-08-25 04:40:00,47.3,47.0,30.35,North,0,0.0,0.0,99,0.00,,,0.00,pywws,2013-08-25 08:40:00,
2013-08-25 04:47:00,47.1,46.9,30.35,North,0,0.0,0.0,99,0.00,,,0.00,pywws,2013-08-25 08:47:00,
2013-08-25 04:53:00,47.5,47.2,30.35,North,0,0.0,0.0,99,0.00,,,0.00,pywws,2013-08-25 08:53:00,
2013-08-25 05:00:00,47.3,47.0,30.35,North,0,0.0,0.0,99,0.00,,,0.00,pywws,2013-08-25 09:00:00,
2013-08-25 05:06:00,47.1,46.9,30.36,North,0,0.0,0.0,99,0.00,,,0.00,pywws,2013-08-25 09:06:00,
2013-08-25 05:11:00,47.1,46.9,30.36,North,0,0.0,0.0,99,0.00,,,0.00,pywws,2013-08-25 09:11:00,
2013-08-25 05:17:00,47.1,46.9,30.36,North,0,0.0,0.0,99,0.00,,,0.00,pywws,2013-08-25 09:17:00,
2013-08-25 05:23:00,47.1,46.9,30.36,North,0,0.0,0.0,99,0.00,,,0.00,pywws,2013-08-25 09:23:00,
2013-08-25 05:32:00,46.9,46.7,30.36,North,0,0.0,0.0,99,0.00,,,0.00,pywws,2013-08-25 09:32:00,
2013-08-25 05:41:00,46.9,46.7,30.36,North,0,0.0,0.0,99,0.00,,,0.00,pywws,2013-08-25 09:41:00,
2013-08-25 05:47:00,47.1,46.9,30.37,North,0,0.0,0.0,99,0.00,,,0.00,pywws,2013-08-25 09:47:00,
2013-08-25 05:55:00,46.8,46.5,30.37,North,0,0.0,0.0,99,0.00,,,0.00,pywws,2013-08-25 09:55:00,
2013-08-25 06:01:00,47.1,46.9,30.37,North,0,0.0,0.0,99,0.00,,,0.00,pywws,2013-08-25 10:01:00,
2013-08-25 06:07:00,47.1,46.9,30.37,North,0,0.0,0.0,99,0.00,,,0.00,pywws,2013-08-25 10:07:00,
2013-08-25 06:12:00,46.9,46.7,30.37,North,0,0.0,0.0,99,0.00,,,0.00,pywws,2013-08-25 10:12:00,
2013-08-25 06:19:00,47.1,46.9,30.38,North,0,0.0,0.0,99,0.00,,,0.00,pywws,2013-08-25 10:19:00,
2013-08-25 06:30:00,47.1,46.9,30.38,North,0,0.0,0.0,99,0.00,,,0.00,pywws,2013-08-25 10:30:00,
2013-08-25 06:37:00,47.8,47.6,30.39,North,0,0.0,0.0,99,0.00,,,0.00,pywws,2013-08-25 10:37:00,
2013-08-25 06:43:00,48.2,47.9,30.38,North,0,0.0,0.0,99,0.00,,,0.00,pywws,2013-08-25 10:43:00,
2013-08-25 06:49:00,48.4,48.1,30.38,North,0,0.0,0.0,99,0.00,,,0.00,pywws,2013-08-25 10:49:00,
2013-08-25 06:55:00,48.9,48.7,30.39,North,0,0.0,0.0,99,0.00,,,0.00,pywws,2013-08-25 10:55:00,
2013-08-25 07:00:00,48.9,48.7,30.39,North,0,0.0,0.0,99,0.00,,,0.00,pywws,2013-08-25 11:00:00,
2013-08-25 07:07:00,49.5,49.2,30.39,North,0,0.0,0.0,99,0.00,,,0.00,pywws,2013-08-25 11:07:00,
2013-08-25 07:12:00,50.0,49.7,30.38,North,0,0.0,0.0,99,0.00,,,0.00,pywws,2013-08-25 11:12:00,
2013-08-25 07:18:00,50.4,50.1,30.39,North,0,0.0,0.0,99,0.00,,,0.00,pywws,2013-08-25 11:18:00,
2013-08-25 07:23:00,51.1,50.8,30.39,North,0,0.0,0.0,99,0.00,,,0.00,pywws,2013-08-25 11:23:00,
2013-08-25 07:29:00,51.4,51.2,30.40,North,0,0.0,0.0,99,0.00,,,0.00,pywws,2013-08-25 11:29:00,
2013-08-25 07:35:00,52.3,51.8,30.39,North,0,0.0,0.0,98,0.00,,,0.00,pywws,2013-08-25 11:35:00,
2013-08-25 07:40:00,52.9,52.3,30.39,North,0,0.0,0.0,98,0.00,,,0.00,pywws,2013-08-25 11:40:00,
2013-08-25 07:46:00,54.3,53.5,30.39,North,0,0.0,0.0,97,0.00,,,0.00,pywws,2013-08-25 11:46:00,
2013-08-25 07:51:00,56.5,56.2,30.39,North,0,0.0,0.0,99,0.00,,,0.00,pywws,2013-08-25 11:51:00,
2013-08-25 07:57:00,59.2,58.9,30.39,North,0,0.0,0.0,99,0.00,,,0.00,pywws,2013-08-25 11:57:00,
2013-08-25 08:03:00,61.9,61.3,30.39,North,0,0.0,0.0,98,0.00,,,0.00,pywws,2013-08-25 12:03:00,
2013-08-25 08:08:00,64.2,63.3,30.39,North,0,0.0,0.0,97,0.00,,,0.00,pywws,2013-08-25 12:08:00,
2013-08-25 08:14:00,65.5,64.0,30.39,North,0,0.0,0.0,95,0.00,,,0.00,pywws,2013-08-25 12:14:00,
2013-08-25 08:19:00,67.3,62.6,30.39,North,0,0.0,0.0,85,0.00,,,0.00,pywws,2013-08-25 12:19:00,
2013-08-25 08:25:00,67.5,59.3,30.39,North,0,0.0,0.0,75,0.00,,,0.00,pywws,2013-08-25 12:25:00,
2013-08-25 08:31:00,71.6,61.7,30.38,North,0,0.0,0.0,71,0.00,,,0.00,pywws,2013-08-25 12:31:00,
2013-08-25 08:36:00,70.9,59.4,30.39,North,0,0.0,0.0,67,0.00,,,0.00,pywws,2013-08-25 12:36:00,
2013-08-25 08:42:00,71.4,59.5,30.38,North,0,0.0,0.0,66,0.00,,,0.00,pywws,2013-08-25 12:42:00,
2013-08-25 08:47:00,72.1,59.3,30.39,North,0,0.0,0.0,64,0.00,,,0.00,pywws,2013-08-25 12:47:00,
2013-08-25 08:53:00,72.0,58.2,30.38,North,0,0.0,0.0,62,0.00,,,0.00,pywws,2013-08-25 12:53:00,
2013-08-25 08:59:00,73.0,60.1,30.38,North,0,0.0,0.0,64,0.00,,,0.00,pywws,2013-08-25 12:59:00,
2013-08-25 09:04:00,73.4,59.6,30.38,North,0,0.0,0.0,62,0.00,,,0.00,pywws,2013-08-25 13:04:00,
2013-08-25 09:10:00,74.3,59.0,30.38,North,0,0.0,0.0,59,0.00,,,0.00,pywws,2013-08-25 13:10:00,
2013-08-25 09:15:00,73.2,58.5,30.39,North,0,0.0,0.0,60,0.00,,,0.00,pywws,2013-08-25 13:15:00,
2013-08-25 09:21:00,74.1,59.3,30.38,North,0,0.0,0.0,60,0.00,,,0.00,pywws,2013-08-25 13:21:00,
2013-08-25 09:27:00,73.6,58.4,30.39,North,0,0.0,0.0,59,0.00,,,0.00,pywws,2013-08-25 13:27:00,
2013-08-25 09:32:00,74.1,59.8,30.38,North,0,0.0,0.0,61,0.00,,,0.00,pywws,2013-08-25 13:32:00,
2013-08-25 09:38:00,74.3,60.0,30.38,North,0,0.0,0.0,61,0.00,,,0.00,pywws,2013-08-25 13:38:00,
2013-08-25 09:43:00,73.4,58.7,30.38,North,0,0.0,0.0,60,0.00,,,0.00,pywws,2013-08-25 13:43:00,
2013-08-25 09:49:00,73.2,58.9,30.39,South,180,0.0,0.0,61,0.00,,,0.00,pywws,2013-08-25 13:49:00,
2013-08-25 09:55:00,73.4,58.7,30.39,West,270,0.0,0.0,60,0.00,,,0.00,pywws,2013-08-25 13:55:00,
2013-08-25 10:00:00,74.1,58.9,30.39,East,90,0.0,0.0,59,0.00,,,0.00,pywws,2013-08-25 14:00:00,
2013-08-25 10:06:00,75.0,59.2,30.39,West,270,0.0,0.0,58,0.00,,,0.00,pywws,2013-08-25 14:06:00,
2013-08-25 10:11:00,75.2,58.9,30.39,East,90,0.0,0.0,57,0.00,,,0.00,pywws,2013-08-25 14:11:00,
2013-08-25 10:17:00,75.2,57.4,30.38,NW,315,0.0,0.0,54,0.00,,,0.00,pywws,2013-08-25 14:17:00,
2013-08-25 10:23:00,75.6,57.7,30.39,West,270,0.0,0.0,54,0.00,,,0.00,pywws,2013-08-25 14:23:00,
2013-08-25 10:28:00,75.6,57.7,30.38,South,180,0.0,0.0,54,0.00,,,0.00,pywws,2013-08-25 14:28:00,
2013-08-25 10:34:00,76.1,57.2,30.38,North,0,0.0,0.0,52,0.00,,,0.00,pywws,2013-08-25 14:34:00,
2013-08-25 10:39:00,75.7,55.2,30.38,East,90,0.0,0.0,49,0.00,,,0.00,pywws,2013-08-25 14:39:00,
2013-08-25 10:45:00,76.8,56.8,30.37,West,270,0.0,0.0,50,0.00,,,0.00,pywws,2013-08-25 14:45:00,
2013-08-25 10:51:00,76.6,55.5,30.37,South,180,0.0,0.0,48,0.00,,,0.00,pywws,2013-08-25 14:51:00,
2013-08-25 10:56:00,77.2,54.2,30.37,West,270,0.0,0.0,45,0.00,,,0.00,pywws,2013-08-25 14:56:00,
2013-08-25 11:02:00,77.2,54.2,30.37,North,0,0.0,0.0,45,0.00,,,0.00,pywws,2013-08-25 15:02:00,
2013-08-25 11:07:00,77.5,54.5,30.37,South,180,0.0,0.0,45,0.00,,,0.00,pywws,2013-08-25 15:07:00,
2013-08-25 11:13:00,78.1,54.4,30.36,South,180,0.0,0.0,44,0.00,,,0.00,pywws,2013-08-25 15:13:00,
2013-08-25 11:19:00,77.9,54.2,30.36,North,0,0.0,0.7,44,0.00,,,0.00,pywws,2013-08-25 15:19:00,
2013-08-25 11:24:00,77.5,53.9,30.36,NE,45,0.0,0.0,44,0.00,,,0.00,pywws,2013-08-25 15:24:00,
2013-08-25 11:30:00,77.5,53.9,30.35,West,270,0.0,0.0,44,0.00,,,0.00,pywws,2013-08-25 15:30:00,
2013-08-25 11:35:00,77.0,52.8,30.35,North,0,0.0,0.0,43,0.00,,,0.00,pywws,2013-08-25 15:35:00,
2013-08-25 11:41:00,77.5,53.3,30.35,North,0,0.0,0.0,43,0.00,,,0.00,pywws,2013-08-25 15:41:00,
2013-08-25 11:47:00,77.9,54.8,30.35,South,180,0.0,0.0,45,0.00,,,0.00,pywws,2013-08-25 15:47:00,
2013-08-25 11:53:00,78.1,55.0,30.34,West,270,0.0,0.0,45,0.00,,,0.00,pywws,2013-08-25 15:53:00,
2013-08-25 11:59:00,78.6,55.5,30.34,South,180,0.0,0.0,45,0.00,,,0.00,pywws,2013-08-25 15:59:00,
2013-08-25 12:04:00,79.9,56.0,30.34,South,180,0.0,0.0,44,0.00,,,0.00,pywws,2013-08-25 16:04:00,
2013-08-25 12:10:00,79.7,54.6,30.34,SW,225,0.0,0.0,42,0.00,,,0.00,pywws,2013-08-25 16:10:00,
2013-08-25 12:15:00,79.5,54.4,30.34,South,180,0.0,0.0,42,0.00,,,0.00,pywws,2013-08-25 16:15:00,
2013-08-25 12:21:00,80.1,55.5,30.34,West,270,0.0,0.0,43,0.00,,,0.00,pywws,2013-08-25 16:21:00,
2013-08-25 12:27:00,81.0,55.7,30.34,West,270,0.0,0.0,42,0.00,,,0.00,pywws,2013-08-25 16:27:00,
2013-08-25 12:32:00,80.8,54.9,30.34,East,90,0.0,0.0,41,0.00,,,0.00,pywws,2013-08-25 16:32:00,
2013-08-25 12:38:00,79.7,51.8,30.34,South,180,0.0,0.0,38,0.00,,,0.00,pywws,2013-08-25 16:38:00,
2013-08-25 12:43:00,80.6,51.2,30.34,West,270,0.0,0.0,36,0.00,,,0.00,pywws,2013-08-25 16:43:00,
2013-08-25 12:49:00,80.8,50.5,30.34,West,270,0.0,0.0,35,0.00,,,0.00,pywws,2013-08-25 16:49:00,
2013-08-25 12:55:00,81.0,50.7,30.33,West,270,0.0,0.0,35,0.00,,,0.00,pywws,2013-08-25 16:55:00,
2013-08-25 13:00:00,80.1,50.7,30.33,West,270,0.0,0.0,36,0.00,,,0.00,pywws,2013-08-25 17:00:00,
2013-08-25 13:06:00,81.0,52.2,30.33,NE,45,0.0,0.0,37,0.00,,,0.00,pywws,2013-08-25 17:06:00,
2013-08-25 13:11:00,81.1,50.9,30.33,South,180,0.0,0.0,35,0.00,,,0.00,pywws,2013-08-25 17:11:00,
2013-08-25 13:17:00,81.5,50.4,30.33,North,0,0.0,0.0,34,0.00,,,0.00,pywws,2013-08-25 17:17:00,
2013-08-25 13:23:00,82.9,53.2,30.33,West,270,0.0,0.0,36,0.00,,,0.00,pywws,2013-08-25 17:23:00,
2013-08-25 13:28:00,81.7,49.8,30.33,South,180,0.0,0.0,33,0.00,,,0.00,pywws,2013-08-25 17:28:00,
2013-08-25 13:34:00,84.2,53.5,30.32,South,180,0.0,0.0,35,0.00,,,0.00,pywws,2013-08-25 17:34:00,
2013-08-25 13:39:00,85.1,52.7,30.33,SE,135,0.0,0.0,33,0.00,,,0.00,pywws,2013-08-25 17:39:00,
2013-08-25 13:45:00,85.6,51.5,30.33,NW,315,0.0,0.0,31,0.00,,,0.00,pywws,2013-08-25 17:45:00,
2013-08-25 13:51:00,86.5,54.0,30.33,South,180,0.0,0.0,33,0.00,,,0.00,pywws,2013-08-25 17:51:00,
2013-08-25 13:57:00,87.1,51.9,30.32,East,90,0.0,0.0,30,0.00,,,0.00,pywws,2013-08-25 17:57:00,
2013-08-25 14:03:00,87.3,50.1,30.32,East,90,0.0,0.0,28,0.00,,,0.00,pywws,2013-08-25 18:03:00,
2013-08-25 14:08:00,86.9,52.6,30.32,West,270,0.0,0.0,31,0.00,,,0.00,pywws,2013-08-25 18:08:00,
2013-08-25 14:14:00,88.7,53.2,30.32,West,270,0.0,0.0,30,0.00,,,0.00,pywws,2013-08-25 18:14:00,
2013-08-25 14:19:00,86.7,49.7,30.32,West,270,0.0,0.0,28,0.00,,,0.00,pywws,2013-08-25 18:19:00,
2013-08-25 14:25:00,86.4,49.4,30.31,West,270,0.0,0.0,28,0.00,,,0.00,pywws,2013-08-25 18:25:00,
2013-08-25 14:31:00,85.5,51.3,30.31,East,90,0.0,0.0,31,0.00,,,0.00,pywws,2013-08-25 18:31:00,
2013-08-25 14:36:00,88.5,52.2,30.31,West,270,0.0,0.0,29,0.00,,,0.00,pywws,2013-08-25 18:36:00,
2013-08-25 14:42:00,86.2,52.8,30.31,West,270,0.0,0.0,32,0.00,,,0.00,pywws,2013-08-25 18:42:00,
2013-08-25 14:47:00,86.9,54.3,30.31,West,270,0.0,0.0,33,0.00,,,0.00,pywws,2013-08-25 18:47:00,
2013-08-25 14:53:00,86.5,54.8,30.31,South,180,0.0,0.0,34,0.00,,,0.00,pywws,2013-08-25 18:53:00,
2013-08-25 14:59:00,87.6,51.4,30.31,West,270,0.0,0.0,29,0.00,,,0.00,pywws,2013-08-25 18:59:00,
2013-08-25 15:04:00,88.7,53.2,30.31,West,270,0.0,0.0,30,0.00,,,0.00,pywws,2013-08-25 19:04:00,
2013-08-25 15:10:00,87.6,53.2,30.31,SW,225,0.0,0.0,31,0.00,,,0.00,pywws,2013-08-25 19:10:00,
2013-08-25 15:15:00,86.7,53.3,30.30,NW,315,0.0,0.0,32,0.00,,,0.00,pywws,2013-08-25 19:15:00,
2013-08-25 15:21:00,85.3,53.7,30.30,South,180,0.0,0.0,34,0.00,,,0.00,pywws,2013-08-25 19:21:00,
2013-08-25 15:27:00,84.6,52.3,30.30,South,180,0.0,0.0,33,0.00,,,0.00,pywws,2013-08-25 19:27:00,
2013-08-25 15:32:00,86.4,53.8,30.30,West,270,0.0,0.7,33,0.00,,,0.00,pywws,2013-08-25 19:32:00,
2013-08-25 15:38:00,85.8,50.8,30.30,NW,315,0.0,0.0,30,0.00,,,0.00,pywws,2013-08-25 19:38:00,
2013-08-25 15:43:00,84.0,50.1,30.29,West,270,0.0,0.0,31,0.00,,,0.00,pywws,2013-08-25 19:43:00,
2013-08-25 15:49:00,84.9,52.6,30.29,North,0,0.0,0.0,33,0.00,,,0.00,pywws,2013-08-25 19:49:00,
2013-08-25 15:55:00,88.0,52.6,30.29,West,270,0.0,0.0,30,0.00,,,0.00,pywws,2013-08-25 19:55:00,
2013-08-25 16:00:00,89.8,53.2,30.29,West,270,0.0,0.0,29,0.00,,,0.00,pywws,2013-08-25 20:00:00,
2013-08-25 16:06:00,85.6,54.8,30.29,West,270,0.0,0.0,35,0.00,,,0.00,pywws,2013-08-25 20:06:00,
2013-08-25 16:11:00,84.9,54.2,30.29,South,180,0.0,0.0,35,0.00,,,0.00,pywws,2013-08-25 20:11:00,
2013-08-25 16:17:00,83.5,52.9,30.28,West,270,0.0,0.7,35,0.00,,,0.00,pywws,2013-08-25 20:17:00,
2013-08-25 16:23:00,81.7,50.6,30.28,West,270,0.0,0.0,34,0.00,,,0.00,pywws,2013-08-25 20:23:00,
2013-08-25 16:29:00,83.3,52.8,30.28,North,0,0.0,0.7,35,0.00,,,0.00,pywws,2013-08-25 20:29:00,
2013-08-25 16:35:00,86.0,54.3,30.28,North,0,0.0,0.0,34,0.00,,,0.00,pywws,2013-08-25 20:35:00,
2013-08-25 16:40:00,84.2,51.9,30.29,South,180,0.0,0.7,33,0.00,,,0.00,pywws,2013-08-25 20:40:00,
2013-08-25 16:46:00,83.1,54.1,30.28,SW,225,0.0,0.0,37,0.00,,,0.00,pywws,2013-08-25 20:46:00,
2013-08-25 16:51:00,83.5,52.9,30.28,West,270,0.0,0.0,35,0.00,,,0.00,pywws,2013-08-25 20:51:00,
2013-08-25 16:57:00,82.6,49.7,30.28,West,270,0.0,0.0,32,0.00,,,0.00,pywws,2013-08-25 20:57:00,
2013-08-25 17:03:00,81.5,47.9,30.28,SW,225,0.0,0.0,31,0.00,,,0.00,pywws,2013-08-25 21:03:00,
2013-08-25 17:08:00,80.4,50.2,30.28,West,270,0.0,0.0,35,0.00,,,0.00,pywws,2013-08-25 21:08:00,
2013-08-25 17:14:00,79.7,51.1,30.28,West,270,0.0,0.0,37,0.00,,,0.00,pywws,2013-08-25 21:14:00,
2013-08-25 17:19:00,78.8,51.0,30.27,West,270,0.0,0.0,38,0.00,,,0.00,pywws,2013-08-25 21:19:00,
2013-08-25 17:25:00,78.8,51.7,30.27,West,270,0.0,0.0,39,0.00,,,0.00,pywws,2013-08-25 21:25:00,
2013-08-25 17:31:00,78.1,53.7,30.27,West,270,0.0,0.0,43,0.00,,,0.00,pywws,2013-08-25 21:31:00,
2013-08-25 17:36:00,77.7,53.4,30.27,West,270,0.0,0.0,43,0.00,,,0.00,pywws,2013-08-25 21:36:00,
2013-08-25 17:42:00,77.5,52.6,30.27,West,270,0.0,0.0,42,0.00,,,0.00,pywws,2013-08-25 21:42:00,
2013-08-25 17:47:00,77.4,53.7,30.26,West,270,0.0,0.0,44,0.00,,,0.00,pywws,2013-08-25 21:47:00,
2013-08-25 17:53:00,77.2,53.6,30.26,West,270,0.0,0.0,44,0.00,,,0.00,pywws,2013-08-25 21:53:00,
2013-08-25 17:59:00,76.8,53.8,30.26,South,180,0.0,0.0,45,0.00,,,0.00,pywws,2013-08-25 21:59:00,
2013-08-25 18:04:00,76.6,54.3,30.26,West,270,0.0,0.0,46,0.00,,,0.00,pywws,2013-08-25 22:04:00,
2013-08-25 18:10:00,76.3,54.6,30.26,West,270,0.0,0.0,47,0.00,,,0.00,pywws,2013-08-25 22:10:00,
2013-08-25 18:15:00,75.9,53.6,30.26,West,270,0.0,0.0,46,0.00,,,0.00,pywws,2013-08-25 22:15:00,
2013-08-25 18:22:00,75.4,53.7,30.25,West,270,0.0,0.0,47,0.00,,,0.00,pywws,2013-08-25 22:22:00,
2013-08-25 18:27:00,74.7,54.2,30.25,West,270,0.0,0.0,49,0.00,,,0.00,pywws,2013-08-25 22:27:00,
2013-08-25 18:33:00,74.1,53.7,30.24,West,270,0.0,0.0,49,0.00,,,0.00,pywws,2013-08-25 22:33:00,
2013-08-25 18:39:00,73.6,53.8,30.24,West,270,0.0,0.0,50,0.00,,,0.00,pywws,2013-08-25 22:39:00,
2013-08-25 18:47:00,72.9,54.2,30.24,West,270,0.0,0.0,52,0.00,,,0.00,pywws,2013-08-25 22:47:00,
2013-08-25 18:52:00,72.0,54.9,30.24,West,270,0.0,0.0,55,0.00,,,0.00,pywws,2013-08-25 22:52:00,
2013-08-25 18:58:00,71.1,56.0,30.24,West,270,0.0,0.0,59,0.00,,,0.00,pywws,2013-08-25 22:58:00,
2013-08-25 19:04:00,70.2,56.5,30.24,West,270,0.0,0.0,62,0.00,,,0.00,pywws,2013-08-25 23:04:00,
2013-08-25 19:10:00,69.4,56.7,30.23,West,270,0.0,0.0,64,0.00,,,0.00,pywws,2013-08-25 23:10:00,
2013-08-25 19:15:00,68.5,57.1,30.24,North,0,0.0,0.0,67,0.00,,,0.00,pywws,2013-08-25 23:15:00,
2013-08-25 19:21:00,67.8,57.3,30.24,North,0,0.0,0.0,69,0.00,,,0.00,pywws,2013-08-25 23:21:00,
2013-08-25 19:28:00,66.9,56.8,30.23,East,90,0.0,0.0,70,0.00,,,0.00,pywws,2013-08-25 23:28:00,
2013-08-25 19:34:00,66.4,56.7,30.24,East,90,0.0,0.0,71,0.00,,,0.00,pywws,2013-08-25 23:34:00,
2013-08-25 19:39:00,65.7,56.4,30.23,East,90,0.0,0.0,72,0.00,,,0.00,pywws,2013-08-25 23:39:00,
2013-08-25 19:45:00,64.8,55.9,30.23,East,90,0.0,0.0,73,0.00,,,0.00,pywws,2013-08-25 23:45:00,
2013-08-25 19:51:00,64.2,55.8,30.24,West,270,0.0,0.0,74,0.00,,,0.00,pywws,2013-08-25 23:51:00,
2013-08-25 19:57:00,66.4,56.7,30.24,West,270,0.0,0.0,71,0.00,,,0.00,pywws,2013-08-25 23:57:00,
2013-08-25 20:03:00,67.5,56.5,30.24,West,270,0.0,0.0,68,0.00,,,0.00,pywws,2013-08-26 00:03:00,
2013-08-25 20:08:00,67.6,56.7,30.24,West,270,0.0,0.0,68,0.00,,,0.00,pywws,2013-08-26 00:08:00,
2013-08-25 20:15:00,67.6,56.7,30.24,West,270,0.0,0.0,68,0.00,,,0.00,pywws,2013-08-26 00:15:00,
2013-08-25 20:20:00,67.5,56.5,30.24,North,0,0.0,0.0,68,0.00,,,0.00,pywws,2013-08-26 00:20:00,
2013-08-25 20:26:00,67.3,56.3,30.24,West,270,0.0,0.0,68,0.00,,,0.00,pywws,2013-08-26 00:26:00,
2013-08-25 20:31:00,66.9,56.4,30.24,West,270,0.0,0.0,69,0.00,,,0.00,pywws,2013-08-26 00:31:00,
2013-08-25 20:37:00,66.7,56.2,30.25,West,270,0.0,0.0,69,0.00,,,0.00,pywws,2013-08-26 00:37:00,
2013-08-25 20:43:00,66.4,56.3,30.25,West,270,0.0,0.0,70,0.00,,,0.00,pywws,2013-08-26 00:43:00,
2013-08-25 20:48:00,66.0,56.7,30.24,West,270,0.0,0.0,72,0.00,,,0.00,pywws,2013-08-26 00:48:00,
2013-08-25 20:54:00,65.1,56.2,30.24,West,270,0.0,0.0,73,0.00,,,0.00,pywws,2013-08-26 00:54:00,
2013-08-25 20:59:00,64.9,56.4,30.24,West,270,0.0,0.0,74,0.00,,,0.00,pywws,2013-08-26 00:59:00,
2013-08-25 21:07:00,64.6,56.5,30.24,West,270,0.0,0.0,75,0.00,,,0.00,pywws,2013-08-26 01:07:00,
2013-08-25 21:12:00,64.2,55.8,30.25,West,270,0.0,0.0,74,0.00,,,0.00,pywws,2013-08-26 01:12:00,
2013-08-25 21:18:00,64.0,56.3,30.24,West,270,0.0,0.0,76,0.00,,,0.00,pywws,2013-08-26 01:18:00,
2013-08-25 21:23:00,63.7,56.0,30.24,West,270,0.0,0.0,76,0.00,,,0.00,pywws,2013-08-26 01:23:00,
2013-08-25 21:29:00,63.7,56.3,30.24,East,90,0.0,0.0,77,0.00,,,0.00,pywws,2013-08-26 01:29:00,
2013-08-25 21:37:00,63.5,56.5,30.24,East,90,0.0,0.0,78,0.00,,,0.00,pywws,2013-08-26 01:37:00,
2013-08-25 21:44:00,63.1,56.5,30.24,East,90,0.0,0.0,79,0.00,,,0.00,pywws,2013-08-26 01:44:00,
2013-08-25 21:52:00,63.0,56.7,30.24,East,90,0.0,0.0,80,0.00,,,0.00,pywws,2013-08-26 01:52:00,
2013-08-25 21:58:00,62.8,56.9,30.23,East,90,0.0,0.0,81,0.00,,,0.00,pywws,2013-08-26 01:58:00,
2013-08-25 22:04:00,62.8,56.9,30.24,East,90,0.0,0.0,81,0.00,,,0.00,pywws,2013-08-26 02:04:00,
2013-08-25 22:10:00,62.6,56.7,30.24,North,0,0.0,0.0,81,0.00,,,0.00,pywws,2013-08-26 02:10:00,
2013-08-25 22:16:00,62.2,56.7,30.24,North,0,0.0,0.0,82,0.00,,,0.00,pywws,2013-08-26 02:16:00,
2013-08-25 22:22:00,62.2,56.7,30.24,North,0,0.0,0.0,82,0.00,,,0.00,pywws,2013-08-26 02:22:00,
2013-08-25 22:27:00,61.9,56.7,30.24,North,0,0.0,0.0,83,0.00,,,0.00,pywws,2013-08-26 02:27:00,
2013-08-25 22:34:00,61.7,56.5,30.23,North,0,0.0,0.0,83,0.00,,,0.00,pywws,2013-08-26 02:34:00,
2013-08-25 22:39:00,61.7,56.5,30.23,North,0,0.0,0.0,83,0.00,,,0.00,pywws,2013-08-26 02:39:00,
2013-08-25 22:47:00,61.5,56.3,30.23,North,0,0.0,0.0,83,0.00,,,0.00,pywws,2013-08-26 02:47:00,
2013-08-25 23:01:00,61.5,56.6,30.23,North,0,0.0,0.0,84,0.00,,,0.00,pywws,2013-08-26 03:01:00,
2013-08-25 23:07:00,61.3,56.5,30.23,North,0,0.0,0.0,84,0.00,,,0.00,pywws,2013-08-26 03:07:00,
2013-08-25 23:14:00,61.7,56.8,30.23,North,0,0.0,0.0,84,0.00,,,0.00,pywws,2013-08-26 03:14:00,
2013-08-25 23:19:00,61.9,57.0,30.23,North,0,0.0,0.0,84,0.00,,,0.00,pywws,2013-08-26 03:19:00,
2013-08-25 23:26:00,61.9,57.0,30.23,West,270,0.0,0.0,84,0.00,,,0.00,pywws,2013-08-26 03:26:00,
2013-08-25 23:31:00,63.1,57.9,30.23,West,270,0.0,0.0,83,0.00,,,0.00,pywws,2013-08-26 03:31:00,
2013-08-25 23:37:00,62.6,57.0,30.23,West,270,0.0,0.0,82,0.00,,,0.00,pywws,2013-08-26 03:37:00,
2013-08-25 23:43:00,64.0,58.4,30.23,West,270,0.0,0.0,82,0.00,,,0.00,pywws,2013-08-26 03:43:00,
2013-08-25 23:50:00,64.6,58.3,30.23,East,90,0.0,0.0,80,0.00,,,0.00,pywws,2013-08-26 03:50:00,
2013-08-25 23:55:00,64.8,58.1,30.23,West,270,0.0,0.0,79,0.00,,,0.00,pywws,2013-08-26 03:55:00,